עמוד ראשי
METAR-TAF:

METAR-TAF

שדות תעופה :

נמל התעופה הבינלאומי אל אלטו

לה פאס, בוליביה

קו רוחב: 16-31S, קו אורך: 068-11W, גובה: 4058מטר

תצפית מזג אוויר נוכחית

הדו"ח נערך לפני 34דקות, בשעה 03:00 UTC
רוח 2קשר עם כיוונים משתנים
טמפרטורת 8 צלסיוס
לחות 25%
לחץ 1039 hPa
ראות 10 קילומטר או יותר

METAR: SLLP 140300Z VRB02KT 9999 NSC 08/M11 Q1039

זמן: 23:34 (03:34 UTC)

תחזית

הדו"ח נערך לפני 5 שעות ו 34דקות, בשעה 22:00 UTC
תחזית בתוקף מ 14 ב 00 UTC עד 14 ב 24 UTC
רוח 6קשר מכיוון צפון/צפון-מזרח
ראות 10 קילומטר או יותר
יעשה מ
14 ב 12 UTC עד 14 ב 14 UTC
רוח 10קשר מכיוון מערב/דרום-מערב

TAF: SLLP 132200Z 1400/1424 03006KT 9999 NSC TX17/1419Z TNM02/1411Z BECMG 1412/1414 25010KT

תצפיות ותחזיות מזג אוויר לגבי יותר מ- 4,000 שדות תעופה ברחבי העולם. דוחות METAR ו- TAF.

התחנות הזמינות מסומנות בנקודות צהובות ואדומות על גבי המפה.

העבר את העכבר לנקודה הצבעונית על מנת לראות את שם התחנה.

לאחר מכן, לחץ כדי לראות את תוכן ואת תחזיות מזג האוויר.

כדי לשנות את המפה: לחץ על הכפתורים הירוקים עם הפלוס השחור כדי להתקרב; על הכפתור הירוק עם המקף כדי להתרחק; או בחיצים הירוקים למפות סמוכות.


METAR-TAF: